sensor_id;sensor_type;location;lat;lon;timestamp;P1;P2;P0
69350;PMS7003;57106;51.446;-2.606;2023-03-31T00:02:00;0;0;
69350;PMS7003;57106;51.446;-2.606;2023-03-31T00:04:26;2;1;
69350;PMS7003;57106;51.446;-2.606;2023-03-31T00:06:51;0;0;
69350;PMS7003;57106;51.446;-2.606;2023-03-31T00:09:17;3;1;
69350;PMS7003;57106;51.446;-2.606;2023-03-31T00:11:42;2;0;
69350;PMS7003;57106;51.446;-2.606;2023-03-31T00:14:09;0;0;
69350;PMS7003;57106;51.446;-2.606;2023-03-31T00:16:34;2;1;
69350;PMS7003;57106;51.446;-2.606;2023-03-31T00:19:04;0;0;
69350;PMS7003;57106;51.446;-2.606;2023-03-31T00:21:25;3;0;
69350;PMS7003;57106;51.446;-2.606;2023-03-31T00:24:08;1;0;
69350;PMS7003;57106;51.446;-2.606;2023-03-31T00:26:21;1;1;
69350;PMS7003;57106;51.446;-2.606;2023-03-31T00:31:07;4;1;
69350;PMS7003;57106;51.446;-2.606;2023-03-31T00:33:32;4;1;
69350;PMS7003;57106;51.446;-2.606;2023-03-31T00:35:58;4;2;
69350;PMS7003;57106;51.446;-2.606;2023-03-31T00:43:20;7;2;
69350;PMS7003;57106;51.446;-2.606;2023-03-31T00:50:31;8;5;
69350;PMS7003;57106;51.446;-2.606;2023-03-31T00:52:58;3;3;
69350;PMS7003;57106;51.446;-2.606;2023-03-31T00:55:24;5;2;
69350;PMS7003;57106;51.446;-2.606;2023-03-31T00:57:48;6;3;
69350;PMS7003;57106;51.446;-2.606;2023-03-31T01:05:04;5;3;
69350;PMS7003;57106;51.446;-2.606;2023-03-31T01:07:30;1;0;
69350;PMS7003;57106;51.446;-2.606;2023-03-31T01:09:56;2;2;
69350;PMS7003;57106;51.446;-2.606;2023-03-31T01:12:20;0;0;
69350;PMS7003;57106;51.446;-2.606;2023-03-31T01:14:46;2;2;
69350;PMS7003;57106;51.446;-2.606;2023-03-31T01:17:12;3;2;
69350;PMS7003;57106;51.446;-2.606;2023-03-31T01:19:41;1;1;
69350;PMS7003;57106;51.446;-2.606;2023-03-31T01:22:08;1;1;
69350;PMS7003;57106;51.446;-2.606;2023-03-31T01:26:55;2;1;
69350;PMS7003;57106;51.446;-2.606;2023-03-31T01:43:53;4;2;
69350;PMS7003;57106;51.446;-2.606;2023-03-31T01:46:19;6;3;
69350;PMS7003;57106;51.446;-2.606;2023-03-31T01:48:46;2;2;
69350;PMS7003;57106;51.446;-2.606;2023-03-31T01:51:11;5;4;
69350;PMS7003;57106;51.446;-2.606;2023-03-31T01:53:35;7;4;
69350;PMS7003;57106;51.446;-2.606;2023-03-31T01:56:00;8;4;
69350;PMS7003;57106;51.446;-2.606;2023-03-31T01:58:25;4;3;
69350;PMS7003;57106;51.446;-2.606;2023-03-31T02:00:52;7;3;
69350;PMS7003;57106;51.446;-2.606;2023-03-31T02:03:16;3;3;
69350;PMS7003;57106;51.446;-2.606;2023-03-31T02:08:07;5;3;
69350;PMS7003;57106;51.446;-2.606;2023-03-31T02:10:32;5;1;
69350;PMS7003;57106;51.446;-2.606;2023-03-31T02:12:57;6;2;
69350;PMS7003;57106;51.446;-2.606;2023-03-31T02:15:23;2;2;
69350;PMS7003;57106;51.446;-2.606;2023-03-31T02:17:48;6;3;
69350;PMS7003;57106;51.446;-2.606;2023-03-31T02:20:14;4;2;
69350;PMS7003;57106;51.446;-2.606;2023-03-31T02:22:40;3;3;
69350;PMS7003;57106;51.446;-2.606;2023-03-31T02:25:05;3;2;
69350;PMS7003;57106;51.446;-2.606;2023-03-31T02:27:31;7;2;
69350;PMS7003;57106;51.446;-2.606;2023-03-31T02:29:55;3;3;
69350;PMS7003;57106;51.446;-2.606;2023-03-31T02:32:21;3;1;
69350;PMS7003;57106;51.446;-2.606;2023-03-31T02:34:46;7;2;
69350;PMS7003;57106;51.446;-2.606;2023-03-31T02:37:12;3;2;
69350;PMS7003;57106;51.446;-2.606;2023-03-31T02:39:38;2;2;
69350;PMS7003;57106;51.446;-2.606;2023-03-31T02:42:03;2;1;
69350;PMS7003;57106;51.446;-2.606;2023-03-31T02:44:29;2;1;
69350;PMS7003;57106;51.446;-2.606;2023-03-31T02:46:56;2;1;
69350;PMS7003;57106;51.446;-2.606;2023-03-31T02:49:20;1;1;
69350;PMS7003;57106;51.446;-2.606;2023-03-31T02:51:48;1;1;
69350;PMS7003;57106;51.446;-2.606;2023-03-31T02:54:16;1;1;
69350;PMS7003;57106;51.446;-2.606;2023-03-31T02:56:42;1;0;
69350;PMS7003;57106;51.446;-2.606;2023-03-31T02:59:05;2;1;
69350;PMS7003;57106;51.446;-2.606;2023-03-31T03:01:34;0;0;
69350;PMS7003;57106;51.446;-2.606;2023-03-31T03:03:57;3;0;
69350;PMS7003;57106;51.446;-2.606;2023-03-31T03:06:21;0;0;
69350;PMS7003;57106;51.446;-2.606;2023-03-31T03:08:47;0;0;
69350;PMS7003;57106;51.446;-2.606;2023-03-31T03:11:16;0;0;
69350;PMS7003;57106;51.446;-2.606;2023-03-31T03:13:35;1;1;
69350;PMS7003;57106;51.446;-2.606;2023-03-31T03:16:02;0;0;
69350;PMS7003;57106;51.446;-2.606;2023-03-31T03:18:26;2;1;
69350;PMS7003;57106;51.446;-2.606;2023-03-31T03:20:52;0;0;
69350;PMS7003;57106;51.446;-2.606;2023-03-31T03:23:27;0;0;
69350;PMS7003;57106;51.446;-2.606;2023-03-31T03:32:59;1;1;
69350;PMS7003;57106;51.446;-2.606;2023-03-31T03:35:24;3;1;
69350;PMS7003;57106;51.446;-2.606;2023-03-31T03:37:50;2;2;
69350;PMS7003;57106;51.446;-2.606;2023-03-31T03:40:15;4;2;
69350;PMS7003;57106;51.446;-2.606;2023-03-31T03:42:41;1;1;
69350;PMS7003;57106;51.446;-2.606;2023-03-31T03:45:06;3;1;
69350;PMS7003;57106;51.446;-2.606;2023-03-31T03:47:32;2;1;
69350;PMS7003;57106;51.446;-2.606;2023-03-31T03:49:57;1;1;
69350;PMS7003;57106;51.446;-2.606;2023-03-31T03:52:23;4;1;
69350;PMS7003;57106;51.446;-2.606;2023-03-31T03:54:48;4;1;
69350;PMS7003;57106;51.446;-2.606;2023-03-31T03:57:14;2;0;
69350;PMS7003;57106;51.446;-2.606;2023-03-31T03:59:39;4;1;
69350;PMS7003;57106;51.446;-2.606;2023-03-31T04:02:05;5;2;
69350;PMS7003;57106;51.446;-2.606;2023-03-31T04:04:30;3;2;
69350;PMS7003;57106;51.446;-2.606;2023-03-31T04:06:56;3;1;
69350;PMS7003;57106;51.446;-2.606;2023-03-31T04:09:22;2;1;
69350;PMS7003;57106;51.446;-2.606;2023-03-31T04:11:47;4;2;
69350;PMS7003;57106;51.446;-2.606;2023-03-31T04:14:13;3;1;
69350;PMS7003;57106;51.446;-2.606;2023-03-31T04:16:38;3;1;
69350;PMS7003;57106;51.446;-2.606;2023-03-31T04:19:04;0;0;
69350;PMS7003;57106;51.446;-2.606;2023-03-31T04:21:29;1;0;
69350;PMS7003;57106;51.446;-2.606;2023-03-31T04:23:55;3;2;
69350;PMS7003;57106;51.446;-2.606;2023-03-31T04:26:20;1;1;
69350;PMS7003;57106;51.446;-2.606;2023-03-31T04:28:46;1;0;
69350;PMS7003;57106;51.446;-2.606;2023-03-31T04:31:12;3;1;
69350;PMS7003;57106;51.446;-2.606;2023-03-31T04:33:37;1;0;
69350;PMS7003;57106;51.446;-2.606;2023-03-31T04:36:02;1;0;
69350;PMS7003;57106;51.446;-2.606;2023-03-31T04:38:28;1;1;
69350;PMS7003;57106;51.446;-2.606;2023-03-31T04:41:03;1;0;
69350;PMS7003;57106;51.446;-2.606;2023-03-31T04:43:19;4;1;
69350;PMS7003;57106;51.446;-2.606;2023-03-31T04:45:44;2;2;
69350;PMS7003;57106;51.446;-2.606;2023-03-31T04:48:10;0;0;
69350;PMS7003;57106;51.446;-2.606;2023-03-31T04:50:35;1;0;
69350;PMS7003;57106;51.446;-2.606;2023-03-31T04:53:01;0;0;
69350;PMS7003;57106;51.446;-2.606;2023-03-31T04:55:27;0;0;
69350;PMS7003;57106;51.446;-2.606;2023-03-31T04:57:52;0;0;
69350;PMS7003;57106;51.446;-2.606;2023-03-31T05:00:18;3;0;
69350;PMS7003;57106;51.446;-2.606;2023-03-31T05:02:43;0;0;
69350;PMS7003;57106;51.446;-2.606;2023-03-31T05:05:08;2;0;
69350;PMS7003;57106;51.446;-2.606;2023-03-31T05:07:34;0;0;
69350;PMS7003;57106;51.446;-2.606;2023-03-31T05:09:59;1;0;
69350;PMS7003;57106;51.446;-2.606;2023-03-31T05:12:25;0;0;
69350;PMS7003;57106;51.446;-2.606;2023-03-31T05:14:52;1;0;
69350;PMS7003;57106;51.446;-2.606;2023-03-31T05:17:16;2;1;
69350;PMS7003;57106;51.446;-2.606;2023-03-31T05:19:41;5;4;
69350;PMS7003;57106;51.446;-2.606;2023-03-31T05:22:07;0;0;
69350;PMS7003;57106;51.446;-2.606;2023-03-31T05:24:32;2;1;
69350;PMS7003;57106;51.446;-2.606;2023-03-31T05:26:58;2;1;
69350;PMS7003;57106;51.446;-2.606;2023-03-31T05:29:24;1;0;
69350;PMS7003;57106;51.446;-2.606;2023-03-31T05:31:49;2;1;
69350;PMS7003;57106;51.446;-2.606;2023-03-31T05:34:14;2;1;
69350;PMS7003;57106;51.446;-2.606;2023-03-31T05:36:40;1;0;
69350;PMS7003;57106;51.446;-2.606;2023-03-31T05:39:07;2;1;
69350;PMS7003;57106;51.446;-2.606;2023-03-31T05:41:31;1;1;
69350;PMS7003;57106;51.446;-2.606;2023-03-31T05:43:56;2;2;
69350;PMS7003;57106;51.446;-2.606;2023-03-31T05:46:22;1;0;
69350;PMS7003;57106;51.446;-2.606;2023-03-31T05:48:47;4;1;
69350;PMS7003;57106;51.446;-2.606;2023-03-31T05:51:13;0;0;
69350;PMS7003;57106;51.446;-2.606;2023-03-31T05:53:39;0;0;
69350;PMS7003;57106;51.446;-2.606;2023-03-31T05:56:04;1;1;
69350;PMS7003;57106;51.446;-2.606;2023-03-31T05:58:30;1;1;
69350;PMS7003;57106;51.446;-2.606;2023-03-31T06:03:21;2;0;
69350;PMS7003;57106;51.446;-2.606;2023-03-31T06:05:46;0;0;
69350;PMS7003;57106;51.446;-2.606;2023-03-31T06:08:12;2;0;
69350;PMS7003;57106;51.446;-2.606;2023-03-31T06:10:37;0;0;
69350;PMS7003;57106;51.446;-2.606;2023-03-31T06:13:03;1;1;
69350;PMS7003;57106;51.446;-2.606;2023-03-31T06:15:28;0;0;
69350;PMS7003;57106;51.446;-2.606;2023-03-31T06:17:54;0;0;
69350;PMS7003;57106;51.446;-2.606;2023-03-31T06:20:19;1;1;
69350;PMS7003;57106;51.446;-2.606;2023-03-31T06:22:45;2;1;
69350;PMS7003;57106;51.446;-2.606;2023-03-31T06:25:10;0;0;
69350;PMS7003;57106;51.446;-2.606;2023-03-31T06:27:36;1;0;
69350;PMS7003;57106;51.446;-2.606;2023-03-31T06:30:02;1;1;
69350;PMS7003;57106;51.446;-2.606;2023-03-31T06:32:27;1;1;
69350;PMS7003;57106;51.446;-2.606;2023-03-31T06:34:53;2;1;
69350;PMS7003;57106;51.446;-2.606;2023-03-31T06:37:19;1;1;
69350;PMS7003;57106;51.446;-2.606;2023-03-31T06:39:44;2;1;
69350;PMS7003;57106;51.446;-2.606;2023-03-31T06:42:09;0;0;
69350;PMS7003;57106;51.446;-2.606;2023-03-31T06:44:35;0;0;
69350;PMS7003;57106;51.446;-2.606;2023-03-31T06:49:26;0;0;
69350;PMS7003;57106;51.446;-2.606;2023-03-31T06:51:56;1;1;
69350;PMS7003;57106;51.446;-2.606;2023-03-31T06:54:22;1;1;
69350;PMS7003;57106;51.446;-2.606;2023-03-31T06:56:42;3;1;
69350;PMS7003;57106;51.446;-2.606;2023-03-31T06:59:08;1;1;
69350;PMS7003;57106;51.446;-2.606;2023-03-31T07:01:34;2;1;
69350;PMS7003;57106;51.446;-2.606;2023-03-31T07:03:59;0;0;
69350;PMS7003;57106;51.446;-2.606;2023-03-31T07:06:25;1;1;
69350;PMS7003;57106;51.446;-2.606;2023-03-31T07:08:50;3;2;
69350;PMS7003;57106;51.446;-2.606;2023-03-31T07:11:16;6;2;
69350;PMS7003;57106;51.446;-2.606;2023-03-31T07:18:32;2;1;
69350;PMS7003;57106;51.446;-2.606;2023-03-31T07:20:58;1;1;
69350;PMS7003;57106;51.446;-2.606;2023-03-31T07:23:23;3;2;
69350;PMS7003;57106;51.446;-2.606;2023-03-31T07:25:49;1;1;
69350;PMS7003;57106;51.446;-2.606;2023-03-31T07:28:14;3;1;
69350;PMS7003;57106;51.446;-2.606;2023-03-31T07:30:40;0;0;
69350;PMS7003;57106;51.446;-2.606;2023-03-31T07:33:06;3;1;
69350;PMS7003;57106;51.446;-2.606;2023-03-31T07:35:31;1;1;
69350;PMS7003;57106;51.446;-2.606;2023-03-31T07:37:57;2;1;
69350;PMS7003;57106;51.446;-2.606;2023-03-31T07:40:23;1;1;
69350;PMS7003;57106;51.446;-2.606;2023-03-31T07:42:48;0;0;
69350;PMS7003;57106;51.446;-2.606;2023-03-31T07:45:14;2;0;
69350;PMS7003;57106;51.446;-2.606;2023-03-31T07:47:39;0;0;
69350;PMS7003;57106;51.446;-2.606;2023-03-31T07:50:05;1;1;
69350;PMS7003;57106;51.446;-2.606;2023-03-31T07:52:35;3;2;
69350;PMS7003;57106;51.446;-2.606;2023-03-31T07:55:00;2;1;
69350;PMS7003;57106;51.446;-2.606;2023-03-31T07:57:21;3;3;
69350;PMS7003;57106;51.446;-2.606;2023-03-31T07:59:52;2;2;
69350;PMS7003;57106;51.446;-2.606;2023-03-31T08:02:13;2;2;
69350;PMS7003;57106;51.446;-2.606;2023-03-31T08:04:38;2;2;
69350;PMS7003;57106;51.446;-2.606;2023-03-31T08:07:04;3;2;
69350;PMS7003;57106;51.446;-2.606;2023-03-31T08:09:29;4;2;
69350;PMS7003;57106;51.446;-2.606;2023-03-31T08:11:55;2;2;
69350;PMS7003;57106;51.446;-2.606;2023-03-31T08:14:20;2;2;
69350;PMS7003;57106;51.446;-2.606;2023-03-31T08:16:45;2;1;
69350;PMS7003;57106;51.446;-2.606;2023-03-31T08:19:11;1;1;
69350;PMS7003;57106;51.446;-2.606;2023-03-31T08:21:36;2;2;
69350;PMS7003;57106;51.446;-2.606;2023-03-31T08:26:28;2;2;
69350;PMS7003;57106;51.446;-2.606;2023-03-31T08:28:53;4;2;
69350;PMS7003;57106;51.446;-2.606;2023-03-31T08:31:19;3;3;
69350;PMS7003;57106;51.446;-2.606;2023-03-31T08:33:44;3;2;
69350;PMS7003;57106;51.446;-2.606;2023-03-31T08:36:10;3;3;
69350;PMS7003;57106;51.446;-2.606;2023-03-31T08:38:35;2;2;
69350;PMS7003;57106;51.446;-2.606;2023-03-31T08:41:01;1;1;
69350;PMS7003;57106;51.446;-2.606;2023-03-31T08:43:28;3;3;
69350;PMS7003;57106;51.446;-2.606;2023-03-31T08:48:23;2;2;
69350;PMS7003;57106;51.446;-2.606;2023-03-31T08:50:45;4;3;
69350;PMS7003;57106;51.446;-2.606;2023-03-31T09:39:13;3;3;
69350;PMS7003;57106;51.446;-2.606;2023-03-31T09:41:38;0;0;
69350;PMS7003;57106;51.446;-2.606;2023-03-31T09:44:08;2;2;
69350;PMS7003;57106;51.446;-2.606;2023-03-31T09:46:30;1;1;
69350;PMS7003;57106;51.446;-2.606;2023-03-31T09:48:57;2;2;
69350;PMS7003;57106;51.446;-2.606;2023-03-31T09:51:31;2;2;
69350;PMS7003;57106;51.446;-2.606;2023-03-31T09:53:47;1;1;
69350;PMS7003;57106;51.446;-2.606;2023-03-31T09:56:11;2;1;
69350;PMS7003;57106;51.446;-2.606;2023-03-31T09:58:39;4;3;
69350;PMS7003;57106;51.446;-2.606;2023-03-31T10:03:28;1;1;
69350;PMS7003;57106;51.446;-2.606;2023-03-31T10:05:54;2;1;
69350;PMS7003;57106;51.446;-2.606;2023-03-31T10:08:21;1;1;
69350;PMS7003;57106;51.446;-2.606;2023-03-31T10:10:45;0;0;
69350;PMS7003;57106;51.446;-2.606;2023-03-31T10:13:10;0;0;
69350;PMS7003;57106;51.446;-2.606;2023-03-31T10:15:36;2;0;
69350;PMS7003;57106;51.446;-2.606;2023-03-31T10:18:01;0;0;
69350;PMS7003;57106;51.446;-2.606;2023-03-31T10:20:31;1;1;
69350;PMS7003;57106;51.446;-2.606;2023-03-31T10:22:52;1;1;
69350;PMS7003;57106;51.446;-2.606;2023-03-31T10:25:19;0;0;
69350;PMS7003;57106;51.446;-2.606;2023-03-31T10:27:43;0;0;
69350;PMS7003;57106;51.446;-2.606;2023-03-31T10:30:10;0;0;
69350;PMS7003;57106;51.446;-2.606;2023-03-31T10:32:37;1;1;
69350;PMS7003;57106;51.446;-2.606;2023-03-31T10:35:03;1;1;
69350;PMS7003;57106;51.446;-2.606;2023-03-31T10:37:25;1;1;
69350;PMS7003;57106;51.446;-2.606;2023-03-31T10:39:55;1;1;
69350;PMS7003;57106;51.446;-2.606;2023-03-31T10:42:18;2;1;
69350;PMS7003;57106;51.446;-2.606;2023-03-31T10:44:43;1;1;
69350;PMS7003;57106;51.446;-2.606;2023-03-31T10:49:37;1;0;
69350;PMS7003;57106;51.446;-2.606;2023-03-31T10:51:57;4;2;
69350;PMS7003;57106;51.446;-2.606;2023-03-31T10:54:23;3;2;
69350;PMS7003;57106;51.446;-2.606;2023-03-31T10:56:49;2;2;
69350;PMS7003;57106;51.446;-2.606;2023-03-31T10:59:18;3;3;
69350;PMS7003;57106;51.446;-2.606;2023-03-31T11:01:42;2;2;
69350;PMS7003;57106;51.446;-2.606;2023-03-31T11:04:09;1;0;
69350;PMS7003;57106;51.446;-2.606;2023-03-31T11:06:32;1;0;
69350;PMS7003;57106;51.446;-2.606;2023-03-31T11:13:47;1;0;
69350;PMS7003;57106;51.446;-2.606;2023-03-31T11:16:17;0;0;
69350;PMS7003;57106;51.446;-2.606;2023-03-31T11:18:41;1;1;
69350;PMS7003;57106;51.446;-2.606;2023-03-31T11:21:05;1;1;
69350;PMS7003;57106;51.446;-2.606;2023-03-31T11:23:31;1;1;
69350;PMS7003;57106;51.446;-2.606;2023-03-31T11:25:55;1;1;
69350;PMS7003;57106;51.446;-2.606;2023-03-31T11:28:22;1;1;
69350;PMS7003;57106;51.446;-2.606;2023-03-31T11:30:45;0;0;
69350;PMS7003;57106;51.446;-2.606;2023-03-31T11:33:17;2;2;
69350;PMS7003;57106;51.446;-2.606;2023-03-31T11:35:39;2;1;
69350;PMS7003;57106;51.446;-2.606;2023-03-31T11:38:07;2;1;
69350;PMS7003;57106;51.446;-2.606;2023-03-31T11:40:31;1;1;
69350;PMS7003;57106;51.446;-2.606;2023-03-31T11:42:52;0;0;
69350;PMS7003;57106;51.446;-2.606;2023-03-31T11:45:18;1;1;
69350;PMS7003;57106;51.446;-2.606;2023-03-31T11:47:43;0;0;
69350;PMS7003;57106;51.446;-2.606;2023-03-31T11:50:09;1;1;
69350;PMS7003;57106;51.446;-2.606;2023-03-31T11:52:36;2;1;
69350;PMS7003;57106;51.446;-2.606;2023-03-31T11:55:00;3;2;
69350;PMS7003;57106;51.446;-2.606;2023-03-31T11:57:27;1;1;
69350;PMS7003;57106;51.446;-2.606;2023-03-31T11:59:52;0;0;
69350;PMS7003;57106;51.446;-2.606;2023-03-31T12:02:16;1;1;
69350;PMS7003;57106;51.446;-2.606;2023-03-31T12:04:43;0;0;
69350;PMS7003;57106;51.446;-2.606;2023-03-31T12:07:12;4;1;
69350;PMS7003;57106;51.446;-2.606;2023-03-31T12:09:35;1;1;
69350;PMS7003;57106;51.446;-2.606;2023-03-31T12:11:59;3;2;
69350;PMS7003;57106;51.446;-2.606;2023-03-31T12:14:26;4;2;
69350;PMS7003;57106;51.446;-2.606;2023-03-31T12:16:50;3;1;
69350;PMS7003;57106;51.446;-2.606;2023-03-31T12:19:16;3;1;
69350;PMS7003;57106;51.446;-2.606;2023-03-31T12:21:41;2;1;
69350;PMS7003;57106;51.446;-2.606;2023-03-31T12:24:08;3;1;
69350;PMS7003;57106;51.446;-2.606;2023-03-31T12:26:33;1;1;
69350;PMS7003;57106;51.446;-2.606;2023-03-31T12:28:57;2;1;
69350;PMS7003;57106;51.446;-2.606;2023-03-31T12:31:22;4;2;
69350;PMS7003;57106;51.446;-2.606;2023-03-31T12:33:48;2;2;
69350;PMS7003;57106;51.446;-2.606;2023-03-31T12:36:17;3;2;
69350;PMS7003;57106;51.446;-2.606;2023-03-31T12:38:47;2;2;
69350;PMS7003;57106;51.446;-2.606;2023-03-31T12:41:11;1;1;
69350;PMS7003;57106;51.446;-2.606;2023-03-31T12:43:36;1;1;
69350;PMS7003;57106;51.446;-2.606;2023-03-31T12:46:00;2;1;
69350;PMS7003;57106;51.446;-2.606;2023-03-31T12:50:49;3;1;
69350;PMS7003;57106;51.446;-2.606;2023-03-31T12:53:14;1;1;
69350;PMS7003;57106;51.446;-2.606;2023-03-31T12:55:45;1;1;
69350;PMS7003;57106;51.446;-2.606;2023-03-31T13:00:28;2;1;
69350;PMS7003;57106;51.446;-2.606;2023-03-31T13:07:44;2;1;
69350;PMS7003;57106;51.446;-2.606;2023-03-31T13:12:35;1;1;
69350;PMS7003;57106;51.446;-2.606;2023-03-31T13:15:01;1;1;
69350;PMS7003;57106;51.446;-2.606;2023-03-31T13:17:27;3;1;
69350;PMS7003;57106;51.446;-2.606;2023-03-31T13:19:52;2;2;
69350;PMS7003;57106;51.446;-2.606;2023-03-31T13:24:43;2;1;
69350;PMS7003;57106;51.446;-2.606;2023-03-31T13:29:38;1;1;
69350;PMS7003;57106;51.446;-2.606;2023-03-31T13:32:05;3;2;
69350;PMS7003;57106;51.446;-2.606;2023-03-31T13:34:25;0;0;
69350;PMS7003;57106;51.446;-2.606;2023-03-31T13:36:59;3;1;
69350;PMS7003;57106;51.446;-2.606;2023-03-31T13:49:00;2;2;
69350;PMS7003;57106;51.446;-2.606;2023-03-31T13:51:28;2;1;
69350;PMS7003;57106;51.446;-2.606;2023-03-31T13:53:56;2;0;
69350;PMS7003;57106;51.446;-2.606;2023-03-31T13:56:19;4;2;
69350;PMS7003;57106;51.446;-2.606;2023-03-31T14:03:36;3;3;
69350;PMS7003;57106;51.446;-2.606;2023-03-31T14:05:58;1;1;
69350;PMS7003;57106;51.446;-2.606;2023-03-31T14:08:26;1;1;
69350;PMS7003;57106;51.446;-2.606;2023-03-31T14:10:47;0;0;
69350;PMS7003;57106;51.446;-2.606;2023-03-31T14:13:14;0;0;
69350;PMS7003;57106;51.446;-2.606;2023-03-31T14:15:39;1;1;
69350;PMS7003;57106;51.446;-2.606;2023-03-31T14:18:04;0;0;
69350;PMS7003;57106;51.446;-2.606;2023-03-31T14:20:32;5;1;
69350;PMS7003;57106;51.446;-2.606;2023-03-31T14:22:58;0;0;
69350;PMS7003;57106;51.446;-2.606;2023-03-31T14:25:25;1;1;
69350;PMS7003;57106;51.446;-2.606;2023-03-31T14:27:50;2;1;
69350;PMS7003;57106;51.446;-2.606;2023-03-31T14:30:14;2;1;
69350;PMS7003;57106;51.446;-2.606;2023-03-31T14:32:38;1;1;
69350;PMS7003;57106;51.446;-2.606;2023-03-31T14:35:07;3;2;
69350;PMS7003;57106;51.446;-2.606;2023-03-31T14:37:28;4;1;
69350;PMS7003;57106;51.446;-2.606;2023-03-31T14:39:54;3;1;
69350;PMS7003;57106;51.446;-2.606;2023-03-31T14:42:20;6;3;
69350;PMS7003;57106;51.446;-2.606;2023-03-31T14:44:45;5;2;
69350;PMS7003;57106;51.446;-2.606;2023-03-31T14:47:12;1;1;
69350;PMS7003;57106;51.446;-2.606;2023-03-31T14:49:36;4;2;
69350;PMS7003;57106;51.446;-2.606;2023-03-31T14:52:13;1;1;
69350;PMS7003;57106;51.446;-2.606;2023-03-31T14:54:33;3;2;
69350;PMS7003;57106;51.446;-2.606;2023-03-31T14:56:53;1;0;
69350;PMS7003;57106;51.446;-2.606;2023-03-31T14:59:19;1;1;
69350;PMS7003;57106;51.446;-2.606;2023-03-31T15:01:43;1;1;
69350;PMS7003;57106;51.446;-2.606;2023-03-31T15:04:09;1;1;
69350;PMS7003;57106;51.446;-2.606;2023-03-31T15:06:35;2;1;
69350;PMS7003;57106;51.446;-2.606;2023-03-31T15:11:26;0;0;
69350;PMS7003;57106;51.446;-2.606;2023-03-31T15:13:52;3;2;
69350;PMS7003;57106;51.446;-2.606;2023-03-31T15:16:29;0;0;
69350;PMS7003;57106;51.446;-2.606;2023-03-31T15:18:52;1;1;
69350;PMS7003;57106;51.446;-2.606;2023-03-31T15:23:33;3;1;
69350;PMS7003;57106;51.446;-2.606;2023-03-31T15:26:04;2;1;
69350;PMS7003;57106;51.446;-2.606;2023-03-31T15:28:28;6;0;
69350;PMS7003;57106;51.446;-2.606;2023-03-31T15:30:50;2;1;
69350;PMS7003;57106;51.446;-2.606;2023-03-31T15:33:16;0;0;
69350;PMS7003;57106;51.446;-2.606;2023-03-31T15:35:41;1;1;
69350;PMS7003;57106;51.446;-2.606;2023-03-31T15:38:09;5;1;
69350;PMS7003;57106;51.446;-2.606;2023-03-31T15:40:35;1;0;
69350;PMS7003;57106;51.446;-2.606;2023-03-31T15:42:58;1;0;
69350;PMS7003;57106;51.446;-2.606;2023-03-31T15:47:49;2;0;
69350;PMS7003;57106;51.446;-2.606;2023-03-31T15:50:14;1;1;
69350;PMS7003;57106;51.446;-2.606;2023-03-31T15:52:45;1;1;
69350;PMS7003;57106;51.446;-2.606;2023-03-31T15:57:32;1;0;
69350;PMS7003;57106;51.446;-2.606;2023-03-31T15:59:56;1;1;
69350;PMS7003;57106;51.446;-2.606;2023-03-31T16:02:22;2;2;
69350;PMS7003;57106;51.446;-2.606;2023-03-31T16:04:47;0;0;
69350;PMS7003;57106;51.446;-2.606;2023-03-31T16:07:13;0;0;
69350;PMS7003;57106;51.446;-2.606;2023-03-31T16:09:39;2;1;
69350;PMS7003;57106;51.446;-2.606;2023-03-31T16:12:04;1;0;
69350;PMS7003;57106;51.446;-2.606;2023-03-31T16:14:31;1;1;
69350;PMS7003;57106;51.446;-2.606;2023-03-31T16:16:55;0;0;
69350;PMS7003;57106;51.446;-2.606;2023-03-31T16:19:20;2;2;
69350;PMS7003;57106;51.446;-2.606;2023-03-31T16:21:46;0;0;
69350;PMS7003;57106;51.446;-2.606;2023-03-31T16:24:11;2;2;
69350;PMS7003;57106;51.446;-2.606;2023-03-31T16:26:39;0;0;
69350;PMS7003;57106;51.446;-2.606;2023-03-31T16:29:02;0;0;
69350;PMS7003;57106;51.446;-2.606;2023-03-31T16:31:35;1;1;
69350;PMS7003;57106;51.446;-2.606;2023-03-31T16:33:54;0;0;
69350;PMS7003;57106;51.446;-2.606;2023-03-31T16:38:44;0;0;
69350;PMS7003;57106;51.446;-2.606;2023-03-31T16:41:10;4;0;
69350;PMS7003;57106;51.446;-2.606;2023-03-31T16:43:36;4;2;
69350;PMS7003;57106;51.446;-2.606;2023-03-31T16:48:28;2;2;
69350;PMS7003;57106;51.446;-2.606;2023-03-31T17:22:24;66;55;
69350;PMS7003;57106;51.446;-2.606;2023-03-31T17:27:15;74;68;
69350;PMS7003;57106;51.446;-2.606;2023-03-31T17:36:56;27;25;
69350;PMS7003;57106;51.446;-2.606;2023-03-31T17:39:21;37;30;
69350;PMS7003;57106;51.446;-2.606;2023-03-31T17:44:12;25;24;
69350;PMS7003;57106;51.446;-2.606;2023-03-31T17:46:38;9;8;
69350;PMS7003;57106;51.446;-2.606;2023-03-31T17:49:03;3;1;
69350;PMS7003;57106;51.446;-2.606;2023-03-31T17:51:29;34;33;
69350;PMS7003;57106;51.446;-2.606;2023-03-31T17:53:54;12;10;
69350;PMS7003;57106;51.446;-2.606;2023-03-31T17:56:20;6;4;
69350;PMS7003;57106;51.446;-2.606;2023-03-31T17:58:45;7;6;
69350;PMS7003;57106;51.446;-2.606;2023-03-31T18:01:11;11;9;
69350;PMS7003;57106;51.446;-2.606;2023-03-31T18:03:37;7;5;
69350;PMS7003;57106;51.446;-2.606;2023-03-31T18:06:03;5;4;
69350;PMS7003;57106;51.446;-2.606;2023-03-31T18:08:27;13;12;
69350;PMS7003;57106;51.446;-2.606;2023-03-31T18:10:52;5;4;
69350;PMS7003;57106;51.446;-2.606;2023-03-31T18:13:18;1;1;
69350;PMS7003;57106;51.446;-2.606;2023-03-31T18:15:44;8;8;
69350;PMS7003;57106;51.446;-2.606;2023-03-31T18:18:09;4;3;
69350;PMS7003;57106;51.446;-2.606;2023-03-31T18:20:34;9;8;
69350;PMS7003;57106;51.446;-2.606;2023-03-31T18:23:00;8;6;
69350;PMS7003;57106;51.446;-2.606;2023-03-31T18:25:25;7;6;
69350;PMS7003;57106;51.446;-2.606;2023-03-31T18:27:51;6;3;
69350;PMS7003;57106;51.446;-2.606;2023-03-31T18:30:16;5;3;
69350;PMS7003;57106;51.446;-2.606;2023-03-31T18:32:41;6;4;
69350;PMS7003;57106;51.446;-2.606;2023-03-31T18:35:11;4;4;
69350;PMS7003;57106;51.446;-2.606;2023-03-31T18:37:32;3;3;
69350;PMS7003;57106;51.446;-2.606;2023-03-31T18:39:57;9;8;
69350;PMS7003;57106;51.446;-2.606;2023-03-31T18:42:23;4;4;
69350;PMS7003;57106;51.446;-2.606;2023-03-31T18:44:48;6;4;
69350;PMS7003;57106;51.446;-2.606;2023-03-31T18:47:13;3;2;
69350;PMS7003;57106;51.446;-2.606;2023-03-31T18:49:39;3;3;
69350;PMS7003;57106;51.446;-2.606;2023-03-31T18:52:05;5;5;
69350;PMS7003;57106;51.446;-2.606;2023-03-31T18:54:30;5;3;
69350;PMS7003;57106;51.446;-2.606;2023-03-31T18:56:55;3;3;
69350;PMS7003;57106;51.446;-2.606;2023-03-31T18:59:21;7;6;
69350;PMS7003;57106;51.446;-2.606;2023-03-31T19:06:38;3;3;
69350;PMS7003;57106;51.446;-2.606;2023-03-31T19:09:03;2;2;
69350;PMS7003;57106;51.446;-2.606;2023-03-31T19:11:29;5;3;
69350;PMS7003;57106;51.446;-2.606;2023-03-31T19:13:54;8;7;
69350;PMS7003;57106;51.446;-2.606;2023-03-31T19:16:25;9;5;
69350;PMS7003;57106;51.446;-2.606;2023-03-31T19:18:45;6;4;
69350;PMS7003;57106;51.446;-2.606;2023-03-31T19:21:11;6;3;
69350;PMS7003;57106;51.446;-2.606;2023-03-31T19:23:36;3;3;
69350;PMS7003;57106;51.446;-2.606;2023-03-31T19:26:03;5;3;
69350;PMS7003;57106;51.446;-2.606;2023-03-31T19:28:28;7;5;
69350;PMS7003;57106;51.446;-2.606;2023-03-31T19:30:53;4;4;
69350;PMS7003;57106;51.446;-2.606;2023-03-31T19:33:19;4;3;
69350;PMS7003;57106;51.446;-2.606;2023-03-31T19:35:45;4;3;
69350;PMS7003;57106;51.446;-2.606;2023-03-31T19:38:10;4;3;
69350;PMS7003;57106;51.446;-2.606;2023-03-31T19:40:40;5;5;
69350;PMS7003;57106;51.446;-2.606;2023-03-31T19:43:01;6;4;
69350;PMS7003;57106;51.446;-2.606;2023-03-31T19:45:26;4;4;
69350;PMS7003;57106;51.446;-2.606;2023-03-31T19:47:52;5;5;
69350;PMS7003;57106;51.446;-2.606;2023-03-31T19:50:17;5;5;